Indian Creek, Missouri
Current Conditions -  °F | °C
As of 6:35 AM on Friday 26 Dec 2014 (Local Time) from KHAE Reporting Station
Clear Clear  
Wind Chill: 35°   Ceiling: Unl
Heat Index: 41°   Visibility: 10mi
Dew Point: 32°   Wind: 9mph
Humidity: 70%   Direction: 170°S
Pressure: 29.97"   Gusts: NA
Location:  39.6493°N, 91.7067°W
Report Text: KHAE 261235Z AUTO 17008KT 10SM CLR 05/00 A2997 RMK AO2
Loading
Personal Weather Stations






























Interactive Weather Map New forecast layout! Learn more

10-Day Weather Forecast

Advertisements
Track Severe Weather on mobile